Time;durP1;ratioP1;P1;durP2;ratioP2;P2;SDS_P1;SDS_P2;PMS_P1;PMS_P2;Temp;Humidity;BMP_temperature;BMP_pressure;BME280_temperature;BME280_humidity;BME280_pressure;Samples;Min_cycle;Max_cycle;Signal;HPM_P1;HPM_P2
2022/02/25 00:01:53;;;;;;;10.93;5.60;;;6.00;99.90;;;;;;5011968;28;20408;-81
2022/02/25 00:04:28;;;;;;;8.20;4.38;;;5.90;99.90;;;;;;5013320;28;20053;-81
2022/02/25 00:10:03;;;;;;;43.70;19.10;;;5.80;99.90;;;;;;4996368;28;20038;-81
2022/02/25 00:20:19;;;;;;;7.53;3.60;;;5.70;99.90;;;;;;5006347;28;20057;-81
2022/02/25 00:22:46;;;;;;;8.05;3.65;;;5.70;99.90;;;;;;5009573;28;20056;-81
2022/02/25 00:28:44;;;;;;;9.43;5.38;;;5.70;99.90;;;;;;4998309;28;20092;-81
2022/02/25 00:31:34;;;;;;;6.50;4.43;;;5.60;99.90;;;;;;5012702;28;20057;-80
2022/02/25 00:34:06;;;;;;;26.63;13.20;;;5.60;99.90;;;;;;4995507;28;20034;-81
2022/02/25 00:40:32;;;;;;;22.02;10.77;;;5.50;99.90;;;;;;4894673;29;20047;-80
2022/02/25 00:43:53;;;;;;;11.65;6.35;;;5.40;99.90;;;;;;4879394;29;20047;-80
2022/02/25 00:49:54;;;;;;;11.35;5.55;;;5.30;99.90;;;;;;4888324;29;20088;-80
2022/02/25 01:06:06;;;;;;;;;;;;;;;;;;;;;
2022/02/25 01:16:52;;;;;;;5.55;3.85;;;5.50;99.90;;;;;;4967416;28;20093;-82
2022/02/25 01:19:00;;;;;;;7.95;4.00;;;5.50;99.90;;;;;;4912208;29;20044;-82
2022/02/25 01:29:37;;;;;;;;;;;;;;;;;;;;;
2022/02/25 01:56:27;;;;;;;;;;;;;;;;;;;;;
2022/02/25 03:13:06;;;;;;;10.07;5.80;;;4.70;99.90;;;;;;4904530;29;20044;-82
2022/02/25 03:33:21;;;;;;;5.90;4.32;;;4.90;99.90;;;;;;4822679;29;20083;-83
2022/02/25 04:34:52;;;;;;;;;;;;;;;;;;;;;
2022/02/25 04:45:10;;;;;;;7.57;5.30;;;5.60;99.90;;;;;;4825654;29;20033;-84
2022/02/25 04:47:57;;;;;;;7.95;5.18;;;5.70;99.90;;;;;;4826904;29;20038;-84
2022/02/25 04:55:00;;;;;;;8.07;4.97;;;5.60;99.90;;;;;;4914000;29;20047;-84
2022/02/25 04:57:46;;;;;;;8.50;5.70;;;5.60;99.90;;;;;;4906137;29;20032;-83
2022/02/25 05:04:11;;;;;;;12.90;5.32;;;5.70;99.90;;;;;;4890142;29;20104;-83
2022/02/25 05:06:54;;;;;;;8.25;5.15;;;5.80;99.90;;;;;;4878052;29;20131;-83
2022/02/25 05:10:10;;;;;;;7.50;5.22;;;5.80;99.90;;;;;;4894519;29;20556;-83
2022/02/25 05:13:49;;;;;;;8.15;5.00;;;5.70;99.90;;;;;;4894483;29;20119;-84
2022/02/25 05:22:12;;;;;;;8.27;5.78;;;5.60;99.90;;;;;;4942913;29;20487;-83
2022/02/25 05:24:41;;;;;;;9.57;6.53;;;5.50;99.90;;;;;;4973027;28;20033;-84
2022/02/25 05:27:20;;;;;;;8.50;5.43;;;5.60;99.90;;;;;;4973028;28;20034;-84
2022/02/25 05:29:48;;;;;;;8.80;5.82;;;5.60;99.90;;;;;;4972962;28;20058;-84
2022/02/25 05:32:38;;;;;;;12.30;5.75;;;5.60;99.90;;;;;;4972556;28;20561;-84
2022/02/25 05:35:21;;;;;;;13.95;6.28;;;5.50;99.90;;;;;;4984986;28;20058;-83
2022/02/25 05:37:56;;;;;;;8.32;6.35;;;5.40;99.90;;;;;;4978625;28;20042;-82
2022/02/25 05:40:25;;;;;;;9.88;6.97;;;5.40;99.90;;;;;;4975906;28;20089;-84
2022/02/25 05:43:03;;;;;;;9.80;7.30;;;5.30;99.90;;;;;;4982483;28;20033;-83
2022/02/25 05:45:31;;;;;;;9.05;6.93;;;5.30;99.90;;;;;;4997481;28;20037;-83
2022/02/25 05:48:03;;;;;;;9.88;6.78;;;5.30;99.90;;;;;;4990473;28;20042;-83
2022/02/25 05:50:40;;;;;;;14.85;7.03;;;5.40;99.90;;;;;;4974214;28;20031;-84
2022/02/25 05:53:26;;;;;;;10.23;7.80;;;5.40;99.90;;;;;;4959613;28;20039;-83
2022/02/25 05:56:05;;;;;;;10.32;6.97;;;5.40;99.90;;;;;;4972437;28;20060;-83
2022/02/25 05:58:31;;;;;;;10.20;7.72;;;5.40;99.90;;;;;;4955586;28;20062;-83
2022/02/25 06:01:00;;;;;;;15.35;8.60;;;5.40;99.90;;;;;;4970600;28;20027;-83
2022/02/25 06:03:26;;;;;;;14.82;8.68;;;5.50;99.90;;;;;;4968041;28;20049;-84
2022/02/25 06:06:02;;;;;;;14.88;9.15;;;5.60;99.90;;;;;;4972591;28;20034;-83
2022/02/25 06:08:47;;;;;;;13.45;8.85;;;5.60;99.90;;;;;;4972299;28;20027;-84
2022/02/25 06:11:27;;;;;;;10.63;7.80;;;5.70;99.90;;;;;;4971986;28;20027;-84
2022/02/25 06:14:04;;;;;;;11.88;9.02;;;5.70;99.90;;;;;;4972312;28;20019;-83
2022/02/25 06:16:30;;;;;;;13.07;8.25;;;5.80;99.90;;;;;;4972722;28;20035;-84
2022/02/25 06:18:56;;;;;;;19.95;9.10;;;5.80;99.90;;;;;;4961952;28;20069;-84
2022/02/25 06:21:22;;;;;;;16.63;8.63;;;5.90;99.90;;;;;;5011198;28;20116;-84
2022/02/25 06:23:48;;;;;;;12.57;8.95;;;6.00;99.90;;;;;;5011359;28;20057;-84
2022/02/25 06:26:20;;;;;;;11.20;8.45;;;6.10;99.90;;;;;;4993491;28;20021;-83
2022/02/25 06:29:01;;;;;;;15.77;8.97;;;6.10;99.90;;;;;;5009732;28;20022;-88
2022/02/25 06:31:30;;;;;;;12.20;8.10;;;6.20;99.90;;;;;;5010249;28;20492;-84
2022/02/25 06:33:56;;;;;;;11.02;8.02;;;6.20;99.90;;;;;;4993821;28;20459;-82
2022/02/25 06:36:27;;;;;;;12.73;8.68;;;6.30;99.90;;;;;;5010801;28;20113;-83
2022/02/25 06:38:53;;;;;;;15.13;9.43;;;6.40;99.90;;;;;;5011379;28;20030;-86
2022/02/25 06:41:19;;;;;;;21.83;10.60;;;6.40;99.90;;;;;;4993532;28;20386;-82
2022/02/25 06:43:44;;;;;;;18.23;9.63;;;6.50;99.90;;;;;;5011282;28;20527;-82
2022/02/25 06:46:13;;;;;;;13.85;9.50;;;6.60;99.90;;;;;;4993058;28;20079;-83
2022/02/25 06:48:42;;;;;;;18.52;9.48;;;6.70;99.90;;;;;;5011308;28;20060;-83
2022/02/25 06:51:16;;;;;;;15.15;9.32;;;6.70;99.90;;;;;;5010547;28;20026;-83
2022/02/25 06:53:42;;;;;;;16.48;8.63;;;6.80;99.90;;;;;;5011094;28;20030;-83
2022/02/25 06:56:09;;;;;;;14.05;8.88;;;6.90;99.90;;;;;;5011021;28;20083;-83
2022/02/25 06:58:40;;;;;;;14.35;9.20;;;7.00;99.90;;;;;;5014245;28;20168;-83
2022/02/25 07:01:09;;;;;;;23.17;7.97;;;7.10;99.90;;;;;;5014166;28;20396;-83
2022/02/25 07:03:49;;;;;;;15.75;8.73;;;7.20;99.90;;;;;;5014609;28;20029;-82
2022/02/25 07:06:24;;;;;;;16.92;8.60;;;7.30;99.90;;;;;;5012181;28;20072;-83
2022/02/25 07:08:51;;;;;;;11.02;7.93;;;7.40;99.90;;;;;;5013226;28;20080;-83
2022/02/25 07:11:23;;;;;;;13.68;8.02;;;7.40;99.90;;;;;;4994649;28;20030;-83
2022/02/25 07:13:49;;;;;;;15.88;9.88;;;7.50;99.90;;;;;;5013209;28;20030;-83
2022/02/25 07:16:21;;;;;;;11.95;8.45;;;7.60;99.90;;;;;;4995184;28;20045;-83
2022/02/25 07:18:47;;;;;;;20.73;9.82;;;7.70;99.90;;;;;;5013289;28;20038;-83
2022/02/25 07:21:13;;;;;;;21.40;12.73;;;7.80;99.90;;;;;;4994277;28;20030;-83
2022/02/25 07:24:07;;;;;;;21.20;13.20;;;7.80;99.90;;;;;;5012932;28;20095;-82
2022/02/25 07:26:55;;;;;;;17.45;11.90;;;7.90;99.90;;;;;;5012355;28;20049;-82
2022/02/25 07:29:20;;;;;;;17.30;10.10;;;8.00;99.90;;;;;;5005761;28;20362;-83
2022/02/25 07:31:46;;;;;;;16.35;10.50;;;8.10;99.90;;;;;;5012183;28;20037;-81
2022/02/25 07:34:16;;;;;;;20.20;13.25;;;8.20;99.90;;;;;;4995755;28;20034;-83
2022/02/25 07:36:51;;;;;;;24.52;15.20;;;8.30;99.90;;;;;;4995498;28;20092;-84
2022/02/25 07:39:16;;;;;;;34.83;20.02;;;8.40;99.90;;;;;;5011864;28;20077;-83
2022/02/25 07:41:51;;;;;;;41.10;22.50;;;8.50;99.90;;;;;;5012704;28;20030;-84
2022/02/25 07:44:21;;;;;;;52.20;26.45;;;8.60;99.90;;;;;;5012914;28;20034;-83
2022/02/25 07:46:47;;;;;;;46.30;22.75;;;8.60;99.90;;;;;;4995323;28;20034;-83
2022/02/25 07:49:16;;;;;;;41.53;23.92;;;8.70;99.90;;;;;;5011007;28;20073;-84
2022/02/25 07:51:50;;;;;;;39.97;20.05;;;8.80;99.90;;;;;;5012165;28;20029;-84
2022/02/25 07:54:25;;;;;;;34.95;16.38;;;8.90;99.90;;;;;;5011978;28;20029;-84
2022/02/25 07:56:54;;;;;;;36.78;17.08;;;9.00;99.90;;;;;;5011790;28;20037;-83
2022/02/25 07:59:28;;;;;;;26.50;14.40;;;9.10;99.90;;;;;;5011633;28;20514;-84
2022/02/25 08:01:59;;;;;;;27.83;12.40;;;9.20;99.90;;;;;;5008115;28;20096;-84
2022/02/25 08:04:33;;;;;;;24.67;12.75;;;9.30;99.90;;;;;;5010150;28;20600;-83
2022/02/25 08:06:59;;;;;;;29.83;12.63;;;9.40;99.90;;;;;;5011635;28;20088;-85
2022/02/25 08:09:30;;;;;;;25.40;12.27;;;9.50;99.90;;;;;;5012396;28;20073;-85
2022/02/25 08:12:26;;;;;;;31.23;14.20;;;9.50;99.90;;;;;;4995701;28;20042;-84
2022/02/25 08:14:54;;;;;;;27.65;11.88;;;9.60;99.90;;;;;;4986980;28;20034;-83
2022/02/25 08:17:31;;;;;;;28.67;12.10;;;9.40;99.90;;;;;;5013476;28;20087;-83
2022/02/25 08:20:00;;;;;;;24.45;12.98;;;9.30;99.90;;;;;;4991967;28;20045;-84
2022/02/25 08:22:26;;;;;;;21.27;13.27;;;9.10;99.90;;;;;;4993522;28;20572;-84
2022/02/25 08:24:58;;;;;;;18.90;12.95;;;9.10;99.90;;;;;;4975545;28;20113;-83
2022/02/25 08:27:26;;;;;;;22.58;12.20;;;9.00;99.90;;;;;;4988462;28;20393;-83
2022/02/25 08:29:53;;;;;;;25.60;13.02;;;9.00;99.90;;;;;;4993404;28;20023;-84
2022/02/25 08:32:24;;;;;;;17.48;13.20;;;9.00;99.90;;;;;;4993154;28;20026;-85
2022/02/25 08:34:52;;;;;;;17.77;13.05;;;9.10;99.90;;;;;;4992868;28;20022;-83
2022/02/25 08:37:19;;;;;;;22.85;12.77;;;9.20;99.90;;;;;;4993084;28;20065;-83
2022/02/25 08:39:45;;;;;;;16.58;11.43;;;9.30;99.90;;;;;;4993212;28;20031;-83
2022/02/25 08:42:17;;;;;;;20.77;12.25;;;9.30;99.90;;;;;;4993057;28;20075;-83
2022/02/25 08:44:46;;;;;;;18.25;11.27;;;9.40;99.90;;;;;;4993024;28;20109;-83
2022/02/25 08:47:16;;;;;;;17.02;11.27;;;9.40;99.90;;;;;;4993206;28;20035;-82
2022/02/25 08:49:42;;;;;;;34.88;11.98;;;9.50;99.90;;;;;;4993011;28;20014;-83
2022/02/25 08:52:11;;;;;;;14.07;10.60;;;9.60;99.90;;;;;;4992555;28;20461;-84
2022/02/25 08:54:41;;;;;;;17.08;11.05;;;9.70;99.90;;;;;;4992960;28;20026;-84
2022/02/25 08:57:09;;;;;;;19.08;11.63;;;9.80;99.90;;;;;;4992905;28;20034;-83
2022/02/25 08:59:37;;;;;;;20.75;11.75;;;9.90;99.90;;;;;;4992413;28;20493;-83
2022/02/25 09:02:09;;;;;;;15.30;11.55;;;10.00;99.90;;;;;;4992675;28;20113;-84
2022/02/25 09:04:36;;;;;;;15.73;11.10;;;10.10;99.90;;;;;;4991581;28;20093;-84
2022/02/25 09:07:02;;;;;;;17.00;10.95;;;10.10;99.90;;;;;;4991456;28;20034;-83
2022/02/25 09:09:27;;;;;;;19.02;11.32;;;10.20;99.90;;;;;;4992409;28;20034;-84
2022/02/25 09:12:09;;;;;;;24.65;12.52;;;10.30;99.90;;;;;;4990987;28;20034;-84
2022/02/25 09:15:10;;;;;;;22.70;12.32;;;10.30;99.90;;;;;;4992070;28;20034;-84
2022/02/25 09:17:40;;;;;;;20.52;12.05;;;10.20;99.90;;;;;;4967368;28;20189;-85
2022/02/25 09:20:26;;;;;;;18.60;10.48;;;10.00;99.90;;;;;;4991046;28;20030;-85
2022/02/25 09:23:08;;;;;;;25.10;9.90;;;9.90;99.90;;;;;;4974184;28;20042;-84
2022/02/25 09:25:37;;;;;;;17.50;9.18;;;9.90;99.90;;;;;;4991246;28;20031;-85
2022/02/25 09:28:09;;;;;;;17.58;9.43;;;9.90;99.90;;;;;;4991124;28;20034;-83
2022/02/25 09:30:38;;;;;;;12.38;9.10;;;10.00;99.90;;;;;;5002220;28;20041;-84
2022/02/25 09:33:16;;;;;;;16.58;9.90;;;9.90;99.90;;;;;;5012157;28;20026;-84
2022/02/25 09:35:42;;;;;;;14.57;10.43;;;10.00;99.90;;;;;;4981510;28;20084;-84
2022/02/25 09:38:09;;;;;;;18.27;10.45;;;10.10;99.90;;;;;;4997161;28;20022;-84
2022/02/25 09:40:44;;;;;;;15.82;10.38;;;10.20;99.90;;;;;;5014397;28;20023;-84
2022/02/25 09:43:13;;;;;;;20.73;10.73;;;10.40;99.90;;;;;;5015837;28;20033;-84
2022/02/25 09:46:27;;;;;;;12.23;8.77;;;10.50;99.90;;;;;;4995601;28;20663;-84
2022/02/25 09:48:36;;;;;;;18.08;7.75;;;10.50;99.90;;;;;;4986412;28;20038;-83
2022/02/25 09:51:02;;;;;;;15.13;7.85;;;10.40;99.90;;;;;;4991790;28;20399;-83
2022/02/25 09:53:35;;;;;;;15.85;8.23;;;10.20;99.90;;;;;;4992524;28;20019;-84
2022/02/25 09:56:02;;;;;;;14.88;8.02;;;10.00;99.90;;;;;;4991674;28;20026;-84
2022/02/25 09:58:35;;;;;;;13.27;7.63;;;10.00;99.90;;;;;;4992089;28;20038;-82
2022/02/25 10:01:08;;;;;;;11.48;7.80;;;10.00;99.90;;;;;;4992016;28;20022;-84
2022/02/25 10:03:43;;;;;;;12.43;7.60;;;10.00;99.90;;;;;;4988622;28;20030;-83
2022/02/25 10:06:12;;;;;;;10.45;6.97;;;10.00;99.90;;;;;;4989848;28;20124;-84
2022/02/25 10:08:38;;;;;;;14.35;7.95;;;10.00;99.90;;;;;;4993151;28;20022;-84
2022/02/25 10:11:07;;;;;;;17.98;8.02;;;10.10;99.90;;;;;;4990168;28;20033;-84
2022/02/25 10:13:34;;;;;;;16.27;8.18;;;10.10;99.90;;;;;;4986439;28;20018;-84
2022/02/25 10:16:08;;;;;;;21.38;9.02;;;10.00;99.90;;;;;;4990236;28;20088;-83
2022/02/25 10:18:38;;;;;;;14.52;8.80;;;9.80;99.90;;;;;;4988058;28;20073;-83
2022/02/25 10:21:13;;;;;;;11.55;7.95;;;9.80;99.90;;;;;;4990398;28;20130;-82
2022/02/25 10:24:09;;;;;;;12.90;9.63;;;9.80;99.90;;;;;;4990580;28;20022;-83
2022/02/25 10:26:40;;;;;;;13.27;8.85;;;9.70;99.90;;;;;;4980220;28;20030;-83
2022/02/25 10:29:14;;;;;;;12.95;8.93;;;9.70;99.90;;;;;;4990690;28;20022;-83
2022/02/25 10:31:59;;;;;;;11.77;8.48;;;9.50;99.90;;;;;;4990343;28;20033;-83
2022/02/25 10:34:31;;;;;;;11.35;8.38;;;9.50;99.90;;;;;;5001389;28;20384;-83
2022/02/25 10:37:15;;;;;;;17.92;9.15;;;9.50;99.90;;;;;;4990690;28;20110;-83
2022/02/25 10:39:50;;;;;;;14.43;8.90;;;9.70;99.90;;;;;;4987235;28;20058;-83
2022/02/25 10:42:25;;;;;;;12.93;8.70;;;9.70;99.90;;;;;;4992969;28;20031;-83
2022/02/25 10:46:32;;;;;;;15.15;9.65;;;9.70;99.90;;;;;;4991089;28;20019;-83
2022/02/25 10:48:39;;;;;;;16.10;9.50;;;9.60;99.90;;;;;;4933909;29;20054;-83
2022/02/25 10:51:10;;;;;;;13.38;10.07;;;9.70;99.90;;;;;;4930536;29;20616;-83
2022/02/25 10:53:55;;;;;;;20.02;10.15;;;9.70;99.90;;;;;;4947055;28;20042;-83
2022/02/25 10:56:22;;;;;;;12.27;10.10;;;9.40;99.90;;;;;;4989820;28;20644;-83
2022/02/25 10:58:54;;;;;;;14.07;11.35;;;9.20;99.90;;;;;;4974073;28;20100;-84
2022/02/25 11:01:38;;;;;;;14.75;12.00;;;9.10;99.90;;;;;;4973941;28;20027;-83
2022/02/25 11:04:21;;;;;;;17.98;12.52;;;9.20;99.90;;;;;;4982212;28;20030;-84
2022/02/25 11:06:50;;;;;;;17.15;13.60;;;9.10;99.90;;;;;;4990874;28;20025;-84
2022/02/25 11:09:17;;;;;;;18.58;12.93;;;9.00;99.90;;;;;;4991460;28;20494;-83
2022/02/25 11:11:46;;;;;;;18.17;13.45;;;8.90;99.90;;;;;;4974270;28;20066;-84
2022/02/25 11:14:13;;;;;;;18.40;13.70;;;8.90;99.90;;;;;;4989868;28;20705;-82
2022/02/25 11:16:47;;;;;;;18.58;14.15;;;8.80;99.90;;;;;;4990104;28;20045;-84
2022/02/25 11:19:21;;;;;;;16.55;13.25;;;8.80;99.90;;;;;;4990004;28;20055;-83
2022/02/25 11:21:57;;;;;;;17.35;12.88;;;8.80;99.90;;;;;;4990527;28;20042;-83
2022/02/25 11:24:24;;;;;;;16.95;13.93;;;8.90;99.90;;;;;;4991066;28;20069;-84
2022/02/25 11:26:53;;;;;;;14.25;12.40;;;9.00;99.90;;;;;;4985809;28;20030;-84
2022/02/25 11:29:29;;;;;;;17.85;12.88;;;9.20;99.90;;;;;;4990849;28;20034;-84
2022/02/25 11:32:01;;;;;;;11.95;10.65;;;9.50;99.90;;;;;;4991141;28;20453;-84
2022/02/25 11:34:27;;;;;;;15.95;10.57;;;10.00;99.90;;;;;;4989647;28;20041;-84
2022/02/25 11:37:02;;;;;;;14.13;11.25;;;10.50;99.90;;;;;;4990759;28;20034;-83
2022/02/25 11:39:33;;;;;;;13.77;11.25;;;10.50;99.90;;;;;;4973659;28;20026;-84
2022/02/25 11:42:05;;;;;;;15.25;11.52;;;10.20;99.90;;;;;;4974194;28;20030;-83
2022/02/25 11:44:36;;;;;;;15.18;10.88;;;10.10;99.90;;;;;;4993498;28;20110;-84
2022/02/25 11:47:03;;;;;;;22.60;12.32;;;10.10;99.90;;;;;;4994958;28;20037;-83
2022/02/25 11:49:36;;;;;;;21.35;12.32;;;10.00;99.90;;;;;;4994769;28;20452;-83
2022/02/25 11:52:06;;;;;;;17.58;12.52;;;9.90;99.90;;;;;;4993537;28;20389;-83
2022/02/25 11:54:46;;;;;;;20.02;12.52;;;9.90;99.90;;;;;;4994688;28;20027;-84
2022/02/25 11:57:15;;;;;;;19.70;12.18;;;9.90;99.90;;;;;;4994452;28;20129;-84
2022/02/25 11:59:40;;;;;;;16.63;10.70;;;10.00;99.90;;;;;;4994491;28;20026;-83
2022/02/25 12:02:30;;;;;;;19.02;12.90;;;10.20;99.90;;;;;;4994162;28;20030;-84
2022/02/25 12:05:05;;;;;;;18.17;12.40;;;10.60;99.90;;;;;;4994432;28;20027;-84
2022/02/25 12:07:44;;;;;;;16.35;11.15;;;10.90;99.90;;;;;;4989525;28;20093;-83
2022/02/25 12:10:22;;;;;;;17.63;12.00;;;11.00;99.90;;;;;;4984029;28;20444;-84
2022/02/25 12:13:04;;;;;;;39.55;13.93;;;10.90;99.90;;;;;;4994249;28;20030;-84
2022/02/25 12:15:44;;;;;;;15.93;12.30;;;10.70;99.90;;;;;;4993701;28;20511;-84
2022/02/25 12:18:12;;;;;;;15.98;12.43;;;10.70;99.90;;;;;;4993316;28;20389;-85
2022/02/25 12:20:45;;;;;;;22.80;12.55;;;10.90;99.90;;;;;;4999639;28;20567;-85
2022/02/25 15:33:07;;;;;;;7.45;5.60;;;9.40;99.90;;;;;;5099628;27;20413;-81
2022/02/25 15:35:33;;;;;;;9.25;5.53;;;9.20;99.90;;;;;;5106993;28;20532;-82
2022/02/25 15:37:58;;;;;;;6.53;4.90;;;9.20;99.90;;;;;;5097545;28;20036;-81
2022/02/25 15:40:24;;;;;;;6.38;4.13;;;9.20;99.90;;;;;;5102525;28;20039;-82
2022/02/25 15:42:51;;;;;;;9.25;5.03;;;9.10;99.90;;;;;;5102118;28;20050;-84
2022/02/25 15:45:18;;;;;;;7.60;4.78;;;9.10;99.90;;;;;;5103083;28;20111;-86
2022/02/25 15:47:43;;;;;;;5.75;4.43;;;9.20;99.90;;;;;;5099741;28;20023;-83
2022/02/25 15:50:09;;;;;;;6.95;3.45;;;9.50;99.90;;;;;;5094436;28;20066;-84
2022/02/25 15:52:35;;;;;;;5.78;3.80;;;9.40;99.90;;;;;;5097202;28;20513;-83
2022/02/25 15:55:02;;;;;;;8.48;3.95;;;9.20;99.90;;;;;;5092107;28;20039;-84
2022/02/25 15:57:28;;;;;;;6.75;4.70;;;9.10;99.90;;;;;;5100891;28;20058;-84
2022/02/25 15:59:54;;;;;;;6.15;4.55;;;9.10;99.90;;;;;;5096267;28;20098;-83
2022/02/25 16:02:21;;;;;;;6.70;4.07;;;9.00;99.90;;;;;;5096570;28;20024;-83
2022/02/25 16:04:47;;;;;;;6.38;3.28;;;8.90;99.90;;;;;;5092697;28;20029;-81
2022/02/25 16:07:13;;;;;;;4.18;3.20;;;8.80;99.90;;;;;;5100266;28;20031;-81
2022/02/25 16:09:45;;;;;;;5.68;3.75;;;8.70;99.90;;;;;;5096112;28;20032;-87
2022/02/25 16:12:16;;;;;;;23.95;14.23;;;8.60;99.90;;;;;;5095509;28;20044;-84
2022/02/25 16:14:45;;;;;;;11.95;6.70;;;8.60;99.90;;;;;;5101496;28;20020;-89
2022/02/25 16:17:11;;;;;;;11.50;6.00;;;8.50;99.90;;;;;;5106324;28;20024;-84
2022/02/25 16:19:45;;;;;;;27.63;14.80;;;8.50;99.90;;;;;;5101256;28;20031;-84
2022/02/25 16:22:14;;;;;;;40.53;17.33;;;8.30;99.90;;;;;;5096457;28;20474;-85
2022/02/25 16:25:01;;;;;;;5.63;3.95;;;8.30;99.90;;;;;;5093857;28;20016;-83
2022/02/25 16:27:26;;;;;;;13.07;6.10;;;8.20;99.90;;;;;;5095604;28;20031;-86
2022/02/25 16:29:52;;;;;;;5.95;4.22;;;8.20;99.90;;;;;;5109638;28;20020;-87
2022/02/25 16:32:18;;;;;;;8.63;4.88;;;8.10;99.90;;;;;;5079161;28;20056;-85
2022/02/25 16:34:49;;;;;;;4.97;3.15;;;8.10;99.90;;;;;;5077739;28;20021;-83
2022/02/25 16:37:15;;;;;;;10.55;6.20;;;8.00;99.90;;;;;;5103269;28;20038;-85
2022/02/25 16:39:44;;;;;;;7.07;4.30;;;8.00;99.90;;;;;;5095943;28;20107;-86
2022/02/25 16:42:13;;;;;;;9.45;6.57;;;7.90;99.90;;;;;;5099357;28;20059;-86
2022/02/25 16:44:41;;;;;;;8.85;5.03;;;7.80;99.90;;;;;;5089882;28;20032;-88
2022/02/25 16:47:07;;;;;;;5.75;4.13;;;7.70;99.90;;;;;;5091538;28;20016;-85
2022/02/25 16:49:36;;;;;;;4.00;3.20;;;7.70;99.90;;;;;;5087861;28;20028;-86
2022/02/25 16:52:02;;;;;;;10.57;3.70;;;7.60;99.90;;;;;;5085162;28;20239;-84
2022/02/25 16:54:31;;;;;;;6.22;3.97;;;7.60;99.90;;;;;;5086659;28;20023;-93
2022/02/25 16:56:57;;;;;;;3.60;3.08;;;7.50;99.90;;;;;;5082235;28;20063;-81
2022/02/25 16:59:27;;;;;;;3.92;2.65;;;7.50;99.90;;;;;;5084736;28;20052;-82
2022/02/25 17:01:53;;;;;;;12.07;4.57;;;7.30;99.90;;;;;;5076482;28;20024;-83
2022/02/25 17:04:19;;;;;;;3.75;2.38;;;7.40;99.90;;;;;;5081868;28;20407;-81
2022/02/25 17:06:45;;;;;;;3.10;2.55;;;7.30;99.90;;;;;;5083443;28;20020;-83
2022/02/25 17:09:11;;;;;;;2.78;2.38;;;7.30;99.90;;;;;;5074988;28;20497;-83
2022/02/25 17:11:39;;;;;;;3.22;2.85;;;7.40;99.90;;;;;;5082822;28;20051;-83
2022/02/25 17:14:05;;;;;;;1.88;1.77;;;7.30;99.90;;;;;;5075873;28;20064;-82
2022/02/25 17:16:31;;;;;;;3.25;2.08;;;7.30;99.90;;;;;;5082776;28;20578;-82
2022/02/25 17:18:57;;;;;;;5.75;3.92;;;7.40;99.90;;;;;;5084347;28;20141;-83
2022/02/25 17:21:22;;;;;;;2.03;1.83;;;7.40;99.90;;;;;;5080232;28;20077;-83
2022/02/25 17:23:51;;;;;;;2.03;1.83;;;7.40;99.90;;;;;;5080721;28;20051;-83
2022/02/25 17:26:16;;;;;;;2.90;1.67;;;7.30;99.90;;;;;;5081852;28;20537;-84
2022/02/25 17:28:42;;;;;;;2.75;1.80;;;7.30;99.90;;;;;;5079083;28;20024;-84
2022/02/25 17:31:08;;;;;;;3.33;1.40;;;7.40;99.90;;;;;;5081614;28;20059;-84
2022/02/25 17:33:34;;;;;;;2.50;1.40;;;7.40;99.90;;;;;;5084434;28;20044;-84
2022/02/25 17:36:00;;;;;;;2.67;0.73;;;7.30;99.90;;;;;;5065779;28;20036;-81
2022/02/25 17:38:26;;;;;;;0.93;0.80;;;7.20;99.90;;;;;;5083166;28;20080;-83
2022/02/25 17:40:52;;;;;;;1.40;1.02;;;7.20;99.90;;;;;;5081009;28;20032;-83
2022/02/25 17:43:18;;;;;;;2.55;1.55;;;7.10;99.90;;;;;;5085230;28;20066;-83
2022/02/25 17:45:46;;;;;;;1.98;0.70;;;7.20;99.90;;;;;;5076483;28;20025;-83
2022/02/25 17:48:13;;;;;;;1.52;0.98;;;7.10;99.90;;;;;;5089613;28;20116;-84
2022/02/25 17:50:39;;;;;;;0.75;0.73;;;7.10;99.90;;;;;;5082002;28;20024;-83
2022/02/25 17:53:04;;;;;;;1.45;0.75;;;7.10;99.90;;;;;;5078213;28;20036;-82
2022/02/25 17:55:30;;;;;;;0.68;0.68;;;6.90;99.90;;;;;;5083016;28;20116;-83
2022/02/25 17:57:56;;;;;;;0.52;0.50;;;6.80;99.90;;;;;;5077776;28;20373;-83
2022/02/25 18:00:22;;;;;;;1.42;0.60;;;6.80;99.90;;;;;;5070600;28;20024;-82
2022/02/25 18:02:48;;;;;;;0.63;0.63;;;6.70;99.90;;;;;;5065318;28;20483;-83
2022/02/25 18:05:16;;;;;;;0.50;0.50;;;6.70;99.90;;;;;;5067471;28;20017;-83
2022/02/25 18:07:46;;;;;;;0.50;0.50;;;6.70;99.90;;;;;;5070248;28;20021;-84
2022/02/25 18:10:13;;;;;;;0.82;0.70;;;6.70;99.90;;;;;;5069492;28;20021;-83
2022/02/25 18:12:47;;;;;;;0.75;0.45;;;6.70;99.90;;;;;;5069532;28;20064;-83
2022/02/25 18:15:13;;;;;;;1.75;0.80;;;6.60;99.90;;;;;;5068604;28;20024;-84
2022/02/25 18:17:40;;;;;;;3.70;0.68;;;6.50;99.90;;;;;;5072500;28;20025;-84
2022/02/25 18:20:09;;;;;;;0.47;0.45;;;6.30;99.90;;;;;;5067509;28;20552;-84
2022/02/25 18:22:36;;;;;;;1.52;0.70;;;6.10;99.90;;;;;;5080646;28;20036;-83
2022/02/25 18:25:03;;;;;;;0.88;0.50;;;5.90;99.90;;;;;;5075190;28;20054;-84
2022/02/25 18:27:29;;;;;;;0.32;0.32;;;5.70;99.90;;;;;;5079850;28;20031;-83
2022/02/25 18:29:58;;;;;;;0.30;0.30;;;5.60;99.90;;;;;;5076547;28;20021;-84
2022/02/25 18:32:25;;;;;;;0.73;0.50;;;5.60;99.90;;;;;;5074892;28;20509;-84
2022/02/25 18:34:52;;;;;;;0.47;0.45;;;5.70;99.90;;;;;;5079053;28;20069;-84
2022/02/25 18:37:17;;;;;;;0.47;0.30;;;5.70;99.90;;;;;;5076977;28;20024;-84
2022/02/25 18:39:45;;;;;;;0.20;0.20;;;5.70;99.90;;;;;;5075749;28;20032;-85
2022/02/25 18:42:12;;;;;;;0.40;0.40;;;5.80;99.90;;;;;;5071400;28;20116;-84
2022/02/25 18:44:38;;;;;;;0.40;0.40;;;5.80;99.90;;;;;;5083524;28;21164;-83
2022/02/25 18:47:04;;;;;;;1.95;0.50;;;5.80;99.90;;;;;;5081869;28;20033;-84
2022/02/25 18:49:30;;;;;;;0.22;0.20;;;5.80;99.90;;;;;;5083444;28;20479;-84
2022/02/25 18:51:57;;;;;;;0.25;0.25;;;5.90;99.90;;;;;;5077052;28;20060;-83
2022/02/25 18:54:22;;;;;;;0.38;0.38;;;6.00;99.90;;;;;;5077420;28;20490;-83
2022/02/25 18:56:49;;;;;;;0.55;0.55;;;6.00;99.90;;;;;;5078568;28;20056;-84
2022/02/25 18:59:15;;;;;;;1.35;1.05;;;6.10;99.90;;;;;;5080534;28;20391;-84
2022/02/25 19:01:46;;;;;;;0.80;0.80;;;6.00;99.90;;;;;;5073296;28;20036;-83
2022/02/25 19:04:12;;;;;;;0.50;0.43;;;6.10;99.90;;;;;;5079956;28;20479;-84
2022/02/25 19:06:43;;;;;;;0.60;0.50;;;6.10;99.90;;;;;;5082396;28;20074;-84
2022/02/25 19:09:09;;;;;;;4.95;0.82;;;6.10;99.90;;;;;;5074285;28;20027;-84
2022/02/25 19:11:36;;;;;;;0.50;0.50;;;6.00;99.90;;;;;;5078338;28;20037;-84
2022/02/25 19:14:02;;;;;;;0.90;0.70;;;6.00;99.90;;;;;;5081524;28;20063;-84
2022/02/25 19:16:28;;;;;;;0.80;0.80;;;6.00;99.90;;;;;;5078377;28;20040;-83
2022/02/25 19:18:55;;;;;;;1.80;0.80;;;6.00;99.90;;;;;;5078609;28;20024;-83
2022/02/25 19:21:21;;;;;;;0.75;0.52;;;6.00;99.90;;;;;;5075916;28;20024;-84
2022/02/25 19:23:49;;;;;;;3.15;0.85;;;6.10;99.90;;;;;;5078646;28;20025;-83
2022/02/25 19:26:16;;;;;;;1.05;0.40;;;6.10;99.90;;;;;;5075529;28;20550;-84
2022/02/25 19:28:45;;;;;;;2.78;1.30;;;6.10;99.90;;;;;;5079225;28;20116;-84
2022/02/25 19:31:11;;;;;;;0.60;0.60;;;6.10;99.90;;;;;;5077409;28;20115;-84
2022/02/25 19:33:37;;;;;;;3.00;1.40;;;6.20;99.90;;;;;;5080545;28;20127;-84
2022/02/25 19:36:03;;;;;;;0.70;0.70;;;6.20;99.90;;;;;;5082209;28;20062;-84
2022/02/25 19:38:32;;;;;;;0.98;0.70;;;6.20;99.90;;;;;;5078336;28;20029;-83
2022/02/25 19:41:00;;;;;;;2.03;0.95;;;6.20;99.90;;;;;;5075777;28;20027;-84
2022/02/25 19:43:26;;;;;;;2.00;1.42;;;6.20;99.90;;;;;;5077446;28;20504;-85
2022/02/25 19:45:52;;;;;;;0.70;0.70;;;6.20;99.90;;;;;;5079918;28;20040;-84
2022/02/25 19:48:20;;;;;;;2.45;0.82;;;6.20;99.90;;;;;;5078856;28;20024;-84
2022/02/25 19:50:46;;;;;;;1.25;0.50;;;6.10;99.90;;;;;;5075878;28;20024;-85
2022/02/25 19:53:16;;;;;;;0.40;0.38;;;6.10;99.90;;;;;;5079434;28;20066;-85
2022/02/25 19:55:43;;;;;;;2.53;0.50;;;6.00;99.90;;;;;;5077032;28;20017;-85
2022/02/25 19:58:10;;;;;;;1.02;0.77;;;6.00;99.90;;;;;;5080002;28;20625;-84
2022/02/25 20:00:35;;;;;;;1.20;0.80;;;6.00;99.90;;;;;;5076850;28;20021;-84
2022/02/25 20:03:01;;;;;;;0.60;0.60;;;5.90;99.90;;;;;;5083018;28;20027;-84
2022/02/25 20:05:27;;;;;;;0.55;0.40;;;5.80;99.90;;;;;;5078672;28;20024;-85
2022/02/25 20:07:53;;;;;;;0.63;0.60;;;5.60;99.90;;;;;;5087022;28;20054;-85
2022/02/25 20:10:18;;;;;;;0.52;0.52;;;5.50;99.90;;;;;;5075920;28;20543;-84
2022/02/25 20:12:44;;;;;;;0.80;0.50;;;5.50;99.90;;;;;;5080183;28;20502;-84
2022/02/25 20:15:10;;;;;;;1.00;0.77;;;5.50;99.90;;;;;;5090150;28;20020;-85
2022/02/25 20:17:39;;;;;;;4.10;0.90;;;5.40;99.90;;;;;;5082989;28;20032;-84
2022/02/25 20:20:06;;;;;;;1.30;0.70;;;5.40;99.90;;;;;;5093723;28;20091;-84
2022/02/25 20:22:31;;;;;;;1.35;0.93;;;5.30;99.90;;;;;;5078195;28;20028;-84
2022/02/25 20:25:00;;;;;;;0.90;0.60;;;5.30;99.90;;;;;;5092873;28;20028;-85
2022/02/25 20:27:27;;;;;;;2.15;0.80;;;5.30;99.90;;;;;;5089625;28;20498;-84
2022/02/25 20:29:53;;;;;;;0.95;0.70;;;5.30;99.90;;;;;;5082241;28;20020;-87